Portada
METAR-TAF:

METAR-TAF

Aeroports :

Aeroport Internacional de Bahrain

Bahrain, Bahrain

latitud: 26-16N, longitud: 050-39E, altitud: 2 m

Observació

L'informe es va fer fa 24 minuts, a les 02:00 UTC
Vent 2 kt amb direcció variable
Temperatura 26°C
Humitat 70%
Pressió 1007 hPa
Visibilitat 10 km o més
sense núvols per sota de 1500 mi sense presència de cumulonimbus.

METAR: OBBI 200200Z VRB02KT CAVOK 26/20 Q1007 NOSIG

Hora: 05:24 (02:24 UTC)

Pronòstic

L'informe es va fer fa 3 hores i 24 minuts, a les 23:00 UTC
Pronòstic vàlid del 20 a les 00 UTC al 21 a les 06 UTC
Vent 10 kt del Est/Sud-Est
Visibilitat 10 km o més
sense núvols per sota de 1500 mi sense presència de cumulonimbus.
Probabilitat 30% :
Temporalment
l' 20 a les 09 UTC al 20 a les 18 UTC
Vent 20 kt del Sud-Est amb ràfegues de 35 kt

TAF: OBBI 192300Z 2000/2106 12010KT CAVOK PROB30 TEMPO 2009/2018 14020G35KT

Observacions i pronòstics meteorològics de més de 4000 aeroports (METAR i TAF).

Les estacions disponibles són els punts grocs i vermells al mapa.

Posi el ratolí al punt desitjat per veure el nom de l'estació.

Feu clic per veure les observacions i els pronòstics meteorològics.

Per canviar el mapa: feu clic els botons verds amb una creu de color negre per apropar; al botó verd amb un guió per allunyar la imatge; o en les fletxes verdes per a mapes adjacents.


METAR-TAF: